Time;durP1;ratioP1;P1;durP2;ratioP2;P2;SDS_P1;SDS_P2;PMS_P1;PMS_P2;Temp;Humidity;BMP_temperature;BMP_pressure;BME280_temperature;BME280_humidity;BME280_pressure;Samples;Min_cycle;Max_cycle;Signal;HPM_P1;HPM_P2
2020/12/29 00:01:48;;;;;;;33.92;12.58;;;;;;;0.67;91.26;101476.40;1726476;83;21141;-85
2020/12/29 00:04:22;;;;;;;28.47;10.10;;;;;;;0.59;91.15;101487.03;1726617;83;21110;-85
2020/12/29 00:06:54;;;;;;;29.60;10.85;;;;;;;0.62;90.79;101485.39;1727710;82;21192;-84
2020/12/29 00:09:23;;;;;;;32.00;11.78;;;;;;;0.54;90.83;101458.91;1734543;82;21181;-84
2020/12/29 00:11:50;;;;;;;29.98;11.68;;;;;;;0.74;90.82;101475.23;1734740;82;21570;-84
2020/12/29 00:14:17;;;;;;;29.80;11.78;;;;;;;0.58;90.99;101477.44;1713904;82;21803;-84
2020/12/29 00:16:44;;;;;;;28.45;11.20;;;;;;;0.55;91.75;101477.78;1734705;82;21130;-84
2020/12/29 00:19:12;;;;;;;29.75;10.82;;;;;;;0.68;91.14;101471.44;1734648;82;21146;-84
2020/12/29 00:21:39;;;;;;;30.08;10.38;;;;;;;0.65;91.21;101463.33;1734632;82;21185;-84
2020/12/29 00:24:07;;;;;;;29.25;10.50;;;;;;;0.65;91.02;101455.88;1734729;82;21570;-84
2020/12/29 00:26:33;;;;;;;31.97;11.28;;;;;;;0.55;90.71;101448.11;1734621;82;21638;-84
2020/12/29 00:29:00;;;;;;;30.88;10.93;;;;;;;0.53;91.26;101451.92;1734714;82;21142;-84
2020/12/29 00:31:27;;;;;;;28.23;11.18;;;;;;;0.64;91.18;101445.73;1734661;82;21202;-84
2020/12/29 00:33:58;;;;;;;29.27;10.65;;;;;;;0.64;91.11;101445.73;1734537;82;21579;-84
2020/12/29 00:36:25;;;;;;;29.85;11.97;;;;;;;0.70;91.05;101452.17;1734560;82;21575;-84
2020/12/29 00:38:52;;;;;;;27.10;10.75;;;;;;;0.57;91.67;101448.77;1713724;82;21138;-84
2020/12/29 00:41:18;;;;;;;28.67;11.48;;;;;;;0.46;92.19;101447.81;1734703;82;21174;-84
2020/12/29 00:43:45;;;;;;;27.70;11.08;;;;;;;0.58;91.51;101443.78;1734660;82;21109;-84
2020/12/29 00:46:14;;;;;;;29.27;11.15;;;;;;;0.71;91.17;101437.94;1713710;82;21113;-84
2020/12/29 00:48:40;;;;;;;29.55;11.15;;;;;;;0.64;91.33;101431.15;1731382;82;21157;-84
2020/12/29 00:51:14;;;;;;;31.93;11.48;;;;;;;0.40;91.55;101445.35;1734698;82;21106;-85
2020/12/29 00:53:39;;;;;;;;;;;;;;;0.64;91.40;101433.80;1734664;82;21177;-84
2020/12/29 00:56:07;;;;;;;34.98;11.03;;;;;;;0.70;91.46;101425.66;1734791;81;21260;-85
2020/12/29 00:58:36;;;;;;;28.10;10.95;;;;;;;0.66;91.08;101433.64;1734588;82;21098;-84
2020/12/29 01:01:04;;;;;;;28.30;11.48;;;;;;;0.63;91.08;101424.20;1635585;86;21175;-84
2020/12/29 01:03:31;;;;;;;25.15;10.53;;;;;;;0.61;91.39;101428.02;1635742;87;21183;-84
2020/12/29 01:05:57;;;;;;;29.92;11.45;;;;;;;0.57;91.52;101423.58;1636090;86;21670;-85
2020/12/29 01:08:23;;;;;;;30.72;11.10;;;;;;;0.54;91.54;101409.84;1635575;86;21256;-84
2020/12/29 01:10:53;;;;;;;27.87;10.63;;;;;;;0.51;91.69;101406.22;1635463;86;21140;-84
2020/12/29 01:13:20;;;;;;;28.75;11.53;;;;;;;0.50;92.22;101404.54;1635425;86;21292;-84
2020/12/29 01:15:48;;;;;;;26.02;10.90;;;;;;;0.61;92.02;101409.46;1635402;86;21191;-84
2020/12/29 01:18:14;;;;;;;27.13;10.98;;;;;;;0.56;91.46;101397.22;1635651;86;21270;-84
2020/12/29 01:20:40;;;;;;;29.18;11.03;;;;;;;0.38;92.14;101398.33;1635578;87;21565;-84
2020/12/29 01:23:06;;;;;;;28.80;11.38;;;;;;;0.60;91.87;101390.08;1635652;86;21115;-84
2020/12/29 01:25:32;;;;;;;29.72;11.20;;;;;;;0.63;91.53;101399.01;1635663;86;21152;-84
2020/12/29 01:27:58;;;;;;;30.10;11.05;;;;;;;0.66;91.60;101396.51;1635782;86;21211;-84
2020/12/29 01:30:24;;;;;;;28.87;11.30;;;;;;;0.72;90.94;101396.31;1635422;86;21247;-84
2020/12/29 01:32:51;;;;;;;28.62;10.15;;;;;;;0.75;90.91;101399.95;1636478;86;22114;-84
2020/12/29 01:35:17;;;;;;;27.98;11.22;;;;;;;0.62;90.95;101407.16;1635535;87;21607;-84
2020/12/29 01:37:44;;;;;;;28.35;10.82;;;;;;;0.71;91.10;101389.34;1635506;86;21194;-84
2020/12/29 01:40:12;;;;;;;28.83;11.50;;;;;;;0.63;91.41;101395.53;1635582;87;21192;-84
2020/12/29 01:42:39;;;;;;;26.93;10.70;;;;;;;0.59;91.77;101395.06;1635789;86;21175;-83
2020/12/29 01:45:09;;;;;;;26.77;11.00;;;;;;;0.75;91.33;101372.09;1635666;86;21254;-85
2020/12/29 01:47:38;;;;;;;30.85;11.33;;;;;;;0.60;91.89;101366.20;1635517;86;21250;-84
2020/12/29 01:50:16;;;;;;;28.80;11.68;;;;;;;0.67;91.60;101379.59;1635574;87;21162;-84
2020/12/29 01:52:42;;;;;;;27.98;10.63;;;;;;;0.63;91.91;101397.69;1622732;87;21061;-84
2020/12/29 01:55:09;;;;;;;28.50;11.30;;;;;;;0.67;91.69;101409.58;1622794;88;21068;-84
2020/12/29 01:57:37;;;;;;;28.07;11.73;;;;;;;0.69;91.83;101413.41;1636673;86;21265;-84
2020/12/29 02:00:12;;;;;;;31.95;11.97;;;;;;;0.76;92.16;101423.63;1660654;85;20963;-84
2020/12/29 02:02:38;;;;;;;30.12;11.57;;;;;;;0.83;92.08;101428.58;1660588;85;21185;-84
2020/12/29 02:05:05;;;;;;;30.40;11.80;;;;;;;0.81;91.76;101427.09;1660812;85;21611;-84
2020/12/29 02:07:31;;;;;;;31.30;11.65;;;;;;;0.93;92.05;101434.16;1656765;85;21256;-84
2020/12/29 02:09:58;;;;;;;26.87;11.53;;;;;;;0.87;91.90;101431.19;1632016;86;21564;-84
2020/12/29 02:12:30;;;;;;;26.40;11.03;;;;;;;0.92;91.68;101416.59;1631856;87;21050;-84
2020/12/29 02:14:57;;;;;;;27.73;10.72;;;;;;;0.87;91.78;101417.92;1632020;87;21210;-84
2020/12/29 02:17:24;;;;;;;27.75;10.23;;;;;;;0.96;91.53;101408.09;1631862;87;21227;-84
2020/12/29 02:19:51;;;;;;;23.95;9.43;;;;;;;0.92;91.50;101398.84;1632020;87;21511;-84
2020/12/29 02:22:21;;;;;;;23.87;9.38;;;;;;;0.94;91.64;101403.95;1631973;87;21269;-84
2020/12/29 02:25:06;;;;;;;24.05;9.75;;;;;;;0.99;91.56;101424.16;1632008;86;21193;-84
2020/12/29 02:27:35;;;;;;;22.10;9.03;;;;;;;1.02;91.17;101438.41;1626574;87;21192;-84
2020/12/29 02:30:01;;;;;;;24.07;10.18;;;;;;;1.08;91.73;101447.81;1626780;87;21167;-84
2020/12/29 02:32:26;;;;;;;24.92;9.55;;;;;;;1.17;91.49;101443.27;1626857;87;20981;-84
2020/12/29 02:34:53;;;;;;;21.85;9.65;;;;;;;1.28;90.92;101420.30;1626768;87;21213;-84
2020/12/29 02:37:20;;;;;;;24.75;9.25;;;;;;;1.19;90.58;101396.14;1626849;87;21208;-84
2020/12/29 02:39:52;;;;;;;25.17;9.65;;;;;;;1.21;90.32;101386.19;1626908;87;21224;-84
2020/12/29 02:42:19;;;;;;;25.32;8.75;;;;;;;1.19;90.47;101378.89;1624325;86;21219;-83
2020/12/29 02:44:45;;;;;;;24.12;8.28;;;;;;;1.13;90.62;101350.41;1626738;88;21279;-85
2020/12/29 02:47:13;;;;;;;25.12;9.63;;;;;;;0.95;91.26;101348.06;1626614;87;22019;-84
2020/12/29 02:49:39;;;;;;;23.10;8.83;;;;;;;1.05;91.05;101337.20;1626228;87;21231;-84
2020/12/29 02:52:06;;;;;;;26.95;9.98;;;;;;;0.97;91.63;101354.51;1626959;87;20982;-84
2020/12/29 02:54:33;;;;;;;23.22;9.33;;;;;;;0.95;91.91;101369.30;1626766;87;21197;-83
2020/12/29 02:56:59;;;;;;;19.73;7.95;;;;;;;1.03;91.68;101368.39;1675181;85;21292;-85
2020/12/29 02:59:25;;;;;;;23.65;8.98;;;;;;;1.09;91.65;101369.03;1680865;84;21875;-83
2020/12/29 03:01:52;;;;;;;23.47;8.33;;;;;;;1.10;91.75;101359.55;1657729;85;21164;-85
2020/12/29 03:04:20;;;;;;;19.23;7.45;;;;;;;1.16;91.27;101353.21;1680848;84;21129;-85
2020/12/29 03:06:46;;;;;;;22.05;7.83;;;;;;;0.92;92.69;101348.94;1681107;84;21274;-83
2020/12/29 03:09:14;;;;;;;19.17;7.72;;;;;;;1.09;92.18;101347.30;1679294;84;21149;-85
2020/12/29 03:11:41;;;;;;;21.97;7.72;;;;;;;0.93;92.76;101334.65;1678329;85;21223;-83
2020/12/29 03:14:08;;;;;;;21.00;7.87;;;;;;;0.83;93.64;101333.58;1678396;85;21201;-83
2020/12/29 03:16:36;;;;;;;22.02;7.97;;;;;;;0.87;93.37;101328.22;1678025;85;21141;-83
2020/12/29 03:19:03;;;;;;;21.73;7.28;;;;;;;0.79;93.90;101319.00;1678275;85;21432;-83
2020/12/29 03:21:29;;;;;;;20.57;7.97;;;;;;;0.91;93.69;101314.91;1690717;82;21194;-83
2020/12/29 03:23:54;;;;;;;19.98;7.72;;;;;;;0.87;93.44;101306.49;1726808;82;21215;-84
2020/12/29 03:26:21;;;;;;;23.75;8.65;;;;;;;0.95;93.73;101298.16;1726714;82;21522;-83
2020/12/29 03:28:47;;;;;;;25.15;9.60;;;;;;;0.84;93.78;101298.89;1726798;82;21366;-83
2020/12/29 03:31:14;;;;;;;22.22;8.43;;;;;;;0.92;93.78;101319.23;1726207;83;21181;-83
2020/12/29 03:33:40;;;;;;;23.25;7.87;;;;;;;0.92;93.62;101338.32;1726644;82;21166;-85
2020/12/29 03:36:06;;;;;;;24.10;8.58;;;;;;;1.04;93.34;101354.14;1726668;82;21166;-83
2020/12/29 03:38:32;;;;;;;24.02;8.78;;;;;;;0.95;93.91;101365.31;1723176;83;21279;-83
2020/12/29 03:40:58;;;;;;;26.10;8.43;;;;;;;0.96;93.74;101381.55;1726743;82;21109;-83
2020/12/29 03:43:25;;;;;;;21.85;8.58;;;;;;;1.09;93.68;101399.56;1726657;82;21105;-83
2020/12/29 03:45:51;;;;;;;19.77;7.55;;;;;;;1.19;93.23;101393.49;1726467;82;21218;-83
2020/12/29 03:48:21;;;;;;;24.52;8.58;;;;;;;1.13;92.99;101384.41;1726781;82;21139;-83
2020/12/29 03:50:47;;;;;;;23.42;8.40;;;;;;;1.10;93.27;101388.75;1726634;82;21566;-84
2020/12/29 03:53:13;;;;;;;22.48;8.05;;;;;;;1.30;93.25;101389.09;1727049;82;21150;-84
2020/12/29 03:55:39;;;;;;;19.80;6.97;;;;;;;1.31;92.76;101376.63;1726715;82;21239;-84
2020/12/29 03:58:06;;;;;;;20.30;8.13;;;;;;;1.31;92.84;101379.29;1726563;82;21598;-83
2020/12/29 04:00:33;;;;;;;21.20;7.50;;;;;;;1.30;92.81;101373.67;1726505;81;21471;-83
2020/12/29 04:02:59;;;;;;;23.62;8.28;;;;;;;1.42;92.03;101372.23;1726913;82;21133;-84
2020/12/29 04:05:26;;;;;;;21.00;7.90;;;;;;;1.35;92.33;101356.67;1726727;83;21023;-84
2020/12/29 04:07:52;;;;;;;24.67;8.65;;;;;;;1.36;92.09;101352.53;1727650;82;21658;-83
2020/12/29 04:10:19;;;;;;;22.22;7.45;;;;;;;1.29;92.38;101356.07;1734917;82;21142;-83
2020/12/29 04:12:45;;;;;;;23.98;8.18;;;;;;;1.40;92.49;101362.78;1734613;82;21120;-82
2020/12/29 04:15:11;;;;;;;20.32;7.37;;;;;;;1.20;92.75;101357.97;1734730;82;21125;-83
2020/12/29 04:17:39;;;;;;;20.65;8.40;;;;;;;1.37;92.68;101357.33;1734731;82;21153;-83
2020/12/29 04:20:09;;;;;;;21.12;7.50;;;;;;;1.45;92.40;101357.26;1734630;82;21098;-83
2020/12/29 04:22:36;;;;;;;20.23;7.70;;;;;;;1.42;92.47;101348.83;1690697;84;21532;-83
2020/12/29 04:25:07;;;;;;;23.18;8.40;;;;;;;1.27;92.90;101348.30;1690760;84;21806;-83
2020/12/29 04:27:34;;;;;;;18.45;6.75;;;;;;;1.26;93.11;101347.14;1690508;84;21738;-84
2020/12/29 04:30:00;;;;;;;21.42;7.22;;;;;;;1.11;93.04;101337.30;1690887;84;21147;-83
2020/12/29 04:32:26;;;;;;;20.32;7.45;;;;;;;1.18;93.64;101338.77;1690558;84;20925;-84
2020/12/29 04:34:52;;;;;;;22.00;7.33;;;;;;;1.28;93.32;101329.20;1690875;84;21603;-84
2020/12/29 04:37:18;;;;;;;20.95;7.90;;;;;;;1.21;93.32;101334.93;1690807;84;21264;-84
2020/12/29 04:39:44;;;;;;;21.12;8.03;;;;;;;1.24;93.47;101338.55;1690562;84;21174;-83
2020/12/29 04:42:13;;;;;;;22.37;7.37;;;;;;;1.13;93.98;101340.61;1690839;84;21190;-83
2020/12/29 04:44:42;;;;;;;23.62;8.25;;;;;;;1.17;94.42;101373.44;1690685;84;21175;-84
2020/12/29 04:47:10;;;;;;;30.75;9.60;;;;;;;1.20;94.18;101382.37;1690601;83;21462;-83
2020/12/29 04:49:36;;;;;;;28.07;9.05;;;;;;;1.31;94.22;101398.70;1689932;83;21197;-83
2020/12/29 04:52:06;;;;;;;30.57;9.10;;;;;;;1.26;94.21;101401.05;1690525;84;21234;-83
2020/12/29 04:54:36;;;;;;;32.98;10.08;;;;;;;1.36;94.08;101397.67;1690557;84;21163;-83
2020/12/29 04:57:05;;;;;;;34.43;10.32;;;;;;;1.36;93.97;101398.17;1634056;87;21610;-83
2020/12/29 04:59:32;;;;;;;36.88;9.78;;;;;;;1.44;93.77;101390.63;1634364;87;21619;-84
2020/12/29 05:02:00;;;;;;;27.85;9.18;;;;;;;1.60;93.14;101382.52;1634526;86;21700;-84
2020/12/29 05:04:26;;;;;;;24.95;7.90;;;;;;;1.67;92.54;101377.30;1634338;86;21156;-84
2020/12/29 05:06:52;;;;;;;24.77;8.08;;;;;;;1.36;92.47;101361.81;1634432;87;21116;-84
2020/12/29 05:09:23;;;;;;;19.10;6.87;;;;;;;1.47;92.72;101361.05;1617325;86;21290;-84
2020/12/29 05:11:50;;;;;;;19.12;6.72;;;;;;;1.42;92.73;101350.98;1615399;87;21581;-84
2020/12/29 05:14:16;;;;;;;30.00;10.65;;;;;;;1.45;92.91;101345.30;1614898;87;21197;-83
2020/12/29 05:16:43;;;;;;;24.98;8.18;;;;;;;1.39;92.88;101339.91;1613274;88;21215;-83
2020/12/29 05:19:12;;;;;;;19.75;7.08;;;;;;;1.27;93.28;101345.64;1636818;85;21642;-83
2020/12/29 05:21:40;;;;;;;23.42;7.70;;;;;;;1.35;92.97;101354.87;1671885;85;21165;-83
2020/12/29 05:24:22;;;;;;;23.25;7.58;;;;;;;1.38;93.26;101352.33;1668289;85;21195;-83
2020/12/29 05:26:55;;;;;;;195.43;47.00;;;;;;;1.37;93.18;101366.63;1667940;85;21172;-83
2020/12/29 05:29:24;;;;;;;33.42;10.18;;;;;;;1.38;93.37;101378.88;1651065;85;21242;-83
2020/12/29 05:31:50;;;;;;;23.30;8.93;;;;;;;1.30;93.66;101383.78;1651243;85;21243;-83
2020/12/29 05:34:27;;;;;;;23.77;7.67;;;;;;;1.28;93.93;101373.83;1649329;85;21214;-83
2020/12/29 05:36:55;;;;;;;21.12;7.42;;;;;;;1.48;93.58;101362.20;1621381;87;21152;-84
2020/12/29 05:39:25;;;;;;;19.15;7.30;;;;;;;1.45;93.06;101360.42;1600059;88;21245;-83
2020/12/29 05:41:53;;;;;;;22.80;7.90;;;;;;;1.45;93.74;101357.77;1621506;87;21601;-84
2020/12/29 05:44:32;;;;;;;27.85;8.68;;;;;;;1.53;93.08;101365.63;1621310;87;21187;-83
2020/12/29 05:47:00;;;;;;;20.48;8.25;;;;;;;1.47;93.22;101368.53;1587372;90;21173;-84
2020/12/29 05:49:28;;;;;;;21.55;7.95;;;;;;;1.31;93.71;101360.20;1587604;90;21252;-83
2020/12/29 05:51:56;;;;;;;18.77;7.12;;;;;;;1.53;93.11;101361.64;1584021;90;21166;-83
2020/12/29 05:54:25;;;;;;;19.85;7.22;;;;;;;1.49;93.22;101364.36;1626377;86;21196;-83
2020/12/29 05:56:52;;;;;;;17.80;7.17;;;;;;;1.57;92.95;101359.78;1645349;86;21173;-83
2020/12/29 05:59:20;;;;;;;19.73;7.15;;;;;;;1.38;93.44;101372.75;1644607;87;21010;-83
2020/12/29 06:01:51;;;;;;;19.35;6.65;;;;;;;1.35;93.76;101365.97;1645454;87;21565;-83
2020/12/29 06:04:18;;;;;;;17.07;6.90;;;;;;;1.47;93.53;101377.83;1645299;87;21976;-83
2020/12/29 06:06:47;;;;;;;22.32;8.05;;;;;;;1.52;93.67;101367.47;1635879;87;21217;-84
2020/12/29 06:09:19;;;;;;;20.48;7.42;;;;;;;1.59;93.43;101360.95;1624286;87;21761;-84
2020/12/29 06:11:54;;;;;;;21.80;7.60;;;;;;;1.48;93.42;101355.56;1595859;89;21257;-83
2020/12/29 06:14:24;;;;;;;20.23;7.40;;;;;;;1.42;93.69;101368.75;1595673;89;21742;-84
2020/12/29 06:16:52;;;;;;;20.27;7.05;;;;;;;1.49;93.73;101375.80;1595880;89;21353;-84
2020/12/29 06:19:26;;;;;;;17.98;6.58;;;;;;;1.61;93.58;101376.19;1595775;89;21178;-83
2020/12/29 06:22:10;;;;;;;23.05;7.78;;;;;;;1.71;93.06;101375.94;1595862;89;21111;-83
2020/12/29 06:24:43;;;;;;;16.57;6.37;;;;;;;1.61;93.18;101372.70;1567532;90;21292;-84
2020/12/29 06:27:11;;;;;;;19.12;7.40;;;;;;;1.69;93.11;101366.80;1561162;91;21180;-83
2020/12/29 06:29:39;;;;;;;18.70;6.53;;;;;;;1.51;93.55;101357.04;1561052;90;21259;-84
2020/12/29 06:32:12;;;;;;;16.77;5.85;;;;;;;1.68;93.12;101349.23;1561052;91;21209;-83
2020/12/29 06:34:40;;;;;;;15.95;6.20;;;;;;;1.38;93.74;101339.05;1573614;90;21667;-84
2020/12/29 06:37:45;;;;;;;19.90;7.80;;;;;;;1.61;93.57;101350.95;1573721;91;21202;-84
2020/12/29 06:40:13;;;;;;;17.55;7.22;;;;;;;1.63;93.30;101366.72;1573616;91;21190;-83
2020/12/29 06:42:42;;;;;;;20.05;7.50;;;;;;;1.63;93.42;101355.58;1573757;91;21328;-84
2020/12/29 06:45:11;;;;;;;23.80;7.05;;;;;;;1.61;93.50;101356.77;1573807;91;21680;-86
2020/12/29 06:47:42;;;;;;;19.20;7.25;;;;;;;1.56;93.89;101355.49;1553684;91;21258;-86
2020/12/29 06:50:29;;;;;;;18.40;6.83;;;;;;;1.69;93.18;101363.33;1573651;89;21390;-89
2020/12/29 06:53:05;;;;;;;16.27;6.83;;;;;;;1.68;93.20;101356.38;1573969;89;21163;-88
2020/12/29 06:55:39;;;;;;;18.95;6.80;;;;;;;1.68;93.21;101354.55;1575338;91;21318;-87
2020/12/29 06:58:07;;;;;;;21.73;6.87;;;;;;;1.69;93.15;101345.55;1574298;91;21047;-88
2020/12/29 07:00:35;;;;;;;20.05;7.45;;;;;;;1.72;93.12;101336.39;1573831;91;21233;-88
2020/12/29 07:03:03;;;;;;;19.15;7.53;;;;;;;1.66;93.54;101344.59;1573711;91;21134;-89
2020/12/29 07:05:35;;;;;;;17.65;6.80;;;;;;;1.79;93.24;101322.69;1574041;91;21702;-88
2020/12/29 07:08:05;;;;;;;18.23;6.87;;;;;;;1.66;93.53;101329.98;1559121;89;21244;-88
2020/12/29 07:10:37;;;;;;;18.52;6.85;;;;;;;1.74;93.48;101327.75;1619069;86;21641;-88
2020/12/29 07:13:16;;;;;;;22.47;7.83;;;;;;;1.77;93.17;101342.81;1657602;86;21179;-88
2020/12/29 07:15:54;;;;;;;22.55;7.45;;;;;;;1.82;93.01;101336.93;1564777;91;21942;-89
2020/12/29 07:18:28;;;;;;;19.23;6.47;;;;;;;1.82;92.90;101347.56;1564735;91;21251;-88
2020/12/29 07:20:57;;;;;;;18.65;7.35;;;;;;;1.90;93.10;101347.98;1564890;91;21358;-88
2020/12/29 07:23:26;;;;;;;20.35;7.75;;;;;;;1.90;92.88;101355.95;1564853;91;21250;-87
2020/12/29 07:25:54;;;;;;;19.12;7.00;;;;;;;1.78;93.10;101372.35;1565024;91;21636;-88
2020/12/29 07:28:24;;;;;;;19.95;7.15;;;;;;;1.83;93.30;101378.46;1561645;90;21283;-89
2020/12/29 07:30:51;;;;;;;20.48;7.15;;;;;;;1.97;93.04;101371.00;1580529;86;21232;-88
2020/12/29 07:33:22;;;;;;;21.25;7.58;;;;;;;2.03;92.93;101369.44;1639115;87;21247;-88
2020/12/29 07:35:49;;;;;;;18.65;6.72;;;;;;;2.04;92.63;101383.86;1536086;93;21192;-88
2020/12/29 07:38:25;;;;;;;20.80;7.25;;;;;;;2.04;92.71;101377.72;1536239;93;21209;-88
2020/12/29 07:40:52;;;;;;;17.95;6.78;;;;;;;2.10;92.57;101370.34;1534739;93;21168;-89
2020/12/29 07:43:19;;;;;;;18.50;7.40;;;;;;;2.21;92.08;101357.09;1535987;91;21780;-88
2020/12/29 07:45:44;;;;;;;21.73;7.78;;;;;;;2.04;92.85;101364.44;1536512;93;21292;-88
2020/12/29 07:48:10;;;;;;;22.67;8.23;;;;;;;2.33;92.30;101381.38;1536323;93;20999;-88
2020/12/29 07:50:40;;;;;;;25.65;9.28;;;;;;;2.12;92.70;101394.92;1536411;93;21617;-86
2020/12/29 07:53:09;;;;;;;26.52;8.88;;;;;;;2.06;93.24;101399.64;1536352;92;21216;-89
2020/12/29 07:55:36;;;;;;;25.05;9.23;;;;;;;2.13;92.79;101397.88;1536710;93;21248;-90
2020/12/29 07:58:06;;;;;;;29.32;9.28;;;;;;;2.21;92.94;101408.43;1536451;93;21701;-88
2020/12/29 08:00:36;;;;;;;26.52;9.50;;;;;;;2.30;92.58;101405.68;1536658;93;21172;-90
2020/12/29 08:03:02;;;;;;;26.45;9.45;;;;;;;2.39;91.82;101388.61;1536040;93;21706;-88
2020/12/29 08:05:30;;;;;;;22.52;8.48;;;;;;;2.43;92.21;101389.87;1536495;93;21212;-88
2020/12/29 08:08:02;;;;;;;22.45;8.63;;;;;;;2.33;91.92;101381.38;1536503;93;21176;-88
2020/12/29 08:10:32;;;;;;;21.25;7.65;;;;;;;2.42;91.96;101378.41;1513385;93;21244;-88
2020/12/29 08:13:00;;;;;;;19.45;7.28;;;;;;;2.34;91.36;101369.71;1479160;94;21185;-88
2020/12/29 08:15:35;;;;;;;19.95;7.53;;;;;;;2.53;91.34;101377.59;1484811;94;21624;-88
2020/12/29 08:18:17;;;;;;;22.15;7.67;;;;;;;2.52;91.01;101366.13;1484591;94;21266;-88
2020/12/29 08:20:58;;;;;;;20.65;7.97;;;;;;;2.46;91.17;101373.03;1484208;94;21147;-88
2020/12/29 08:23:27;;;;;;;22.40;7.92;;;;;;;2.49;91.30;101375.31;1483895;94;21357;-88
2020/12/29 08:25:58;;;;;;;23.50;8.38;;;;;;;2.51;91.59;101376.47;1484128;94;21235;-88
2020/12/29 08:28:31;;;;;;;22.15;8.40;;;;;;;2.46;91.68;101374.86;1484056;94;21186;-88
2020/12/29 08:31:03;;;;;;;29.02;9.08;;;;;;;2.46;91.27;101372.20;1484012;94;21225;-88
2020/12/29 08:33:30;;;;;;;34.50;9.63;;;;;;;2.49;91.45;101365.18;1552085;91;21212;-88
2020/12/29 08:35:58;;;;;;;22.27;7.92;;;;;;;2.60;90.78;101362.55;1544396;91;21242;-88
2020/12/29 08:38:42;;;;;;;24.12;8.80;;;;;;;2.52;90.51;101355.49;1565032;91;21207;-88
2020/12/29 08:41:16;;;;;;;26.55;10.03;;;;;;;2.39;91.67;101363.34;1565218;91;26721;-88
2020/12/29 08:43:50;;;;;;;25.65;9.78;;;;;;;2.39;91.67;101363.34;1535930;93;21194;-88
2020/12/29 08:46:19;;;;;;;28.05;9.48;;;;;;;2.42;91.79;101352.33;1536767;92;21288;-89
2020/12/29 08:48:58;;;;;;;29.32;10.53;;;;;;;2.54;91.71;101362.79;1536212;92;21198;-88
2020/12/29 08:51:39;;;;;;;29.18;9.73;;;;;;;2.41;91.97;101365.28;1536232;92;21218;-88
2020/12/29 08:54:14;;;;;;;29.30;10.85;;;;;;;2.50;92.15;101362.34;1536335;92;21741;-88
2020/12/29 08:56:42;;;;;;;36.55;14.25;;;;;;;2.50;91.80;101373.50;1536128;92;21263;-88
2020/12/29 08:59:14;;;;;;;32.70;12.18;;;;;;;2.52;92.16;101380.77;1536051;93;21226;-88
2020/12/29 09:01:44;;;;;;;28.15;10.93;;;;;;;2.73;91.40;101365.33;1536082;93;21290;-88
2020/12/29 09:04:33;;;;;;;39.10;14.20;;;;;;;2.62;91.01;101355.21;1543893;92;21260;-88
2020/12/29 09:07:11;;;;;;;41.15;16.00;;;;;;;2.50;91.82;101360.20;1544012;92;21196;-88
2020/12/29 09:10:01;;;;;;;26.90;10.50;;;;;;;2.65;91.29;101362.30;1574454;88;21245;-89
2020/12/29 09:12:31;;;;;;;25.72;9.05;;;;;;;2.72;90.40;101357.86;1620300;88;21112;-88
2020/12/29 09:15:02;;;;;;;24.75;9.48;;;;;;;2.59;91.31;101339.11;1620395;88;22369;-89
2020/12/29 09:17:40;;;;;;;26.17;9.20;;;;;;;2.61;91.14;101341.05;1620807;88;21668;-88
2020/12/29 09:20:24;;;;;;;28.05;10.80;;;;;;;2.67;91.04;101355.45;1622949;85;21176;-88
2020/12/29 09:25:32;;;;;;;30.50;11.95;;;;;;;2.62;91.51;101362.68;1631895;87;21188;-88
2020/12/29 09:28:24;;;;;;;29.32;10.95;;;;;;;2.69;91.44;101349.44;1631959;87;21255;-89
2020/12/29 09:31:07;;;;;;;26.05;9.58;;;;;;;2.63;91.26;101354.19;1631921;87;21175;-89
2020/12/29 09:33:35;;;;;;;23.40;9.35;;;;;;;2.69;91.65;101346.78;1631673;87;21196;-88
2020/12/29 09:36:04;;;;;;;29.07;10.68;;;;;;;2.71;91.03;101346.91;1631900;87;21301;-87
2020/12/29 09:38:33;;;;;;;27.90;9.93;;;;;;;2.56;91.39;101346.14;1631825;87;21211;-87
2020/12/29 09:41:00;;;;;;;28.17;10.05;;;;;;;2.73;91.53;101339.54;1631855;87;21142;-87
2020/12/29 09:43:26;;;;;;;27.93;10.13;;;;;;;2.72;91.93;101328.59;1631919;87;21176;-87
2020/12/29 09:45:57;;;;;;;22.67;8.80;;;;;;;2.90;91.24;101317.49;1632161;87;21780;-87
2020/12/29 09:48:22;;;;;;;28.90;9.63;;;;;;;2.86;90.62;101324.73;1631816;87;21278;-87
2020/12/29 09:50:48;;;;;;;25.95;9.65;;;;;;;2.86;90.26;101327.41;1631937;87;21061;-87
2020/12/29 09:53:13;;;;;;;28.15;10.35;;;;;;;2.90;90.46;101318.00;1631819;87;21305;-90
2020/12/29 09:55:40;;;;;;;29.30;10.00;;;;;;;2.92;91.05;101322.64;1632059;87;20987;-89
2020/12/29 09:58:06;;;;;;;30.00;10.03;;;;;;;2.99;90.90;101322.17;1632105;87;21085;-89
2020/12/29 10:00:32;;;;;;;31.50;10.28;;;;;;;2.95;89.94;101313.76;1597034;89;21505;-89
2020/12/29 10:02:59;;;;;;;34.50;12.25;;;;;;;3.05;89.84;101305.44;1589095;90;21075;-90
2020/12/29 10:05:25;;;;;;;31.42;10.82;;;;;;;2.98;90.18;101307.23;1590443;90;21255;-88
2020/12/29 10:07:51;;;;;;;30.23;11.22;;;;;;;3.02;90.40;101303.67;1589441;90;21184;-89
2020/12/29 10:10:17;;;;;;;46.55;16.15;;;;;;;3.12;89.78;101307.66;1588574;89;21266;-89
2020/12/29 10:12:43;;;;;;;31.17;11.93;;;;;;;2.93;90.16;101311.78;1588687;90;21009;-90
2020/12/29 10:15:09;;;;;;;36.68;13.25;;;;;;;2.93;90.56;101321.62;1588549;90;21158;-89
2020/12/29 10:17:38;;;;;;;33.85;11.50;;;;;;;2.92;90.49;101315.47;1585896;89;21245;-89
2020/12/29 10:20:06;;;;;;;33.67;11.97;;;;;;;2.98;90.35;101305.08;1590528;89;21196;-89
2020/12/29 10:22:32;;;;;;;32.13;12.05;;;;;;;2.98;90.15;101303.23;1650999;84;21124;-89
2020/12/29 10:24:58;;;;;;;35.20;13.13;;;;;;;2.94;90.71;101297.97;1697387;84;21631;-89
2020/12/29 10:27:24;;;;;;;32.98;12.00;;;;;;;3.05;90.77;101296.11;1697190;83;21142;-89
2020/12/29 10:29:50;;;;;;;29.52;11.48;;;;;;;2.97;90.53;101302.91;1697795;83;21087;-89
2020/12/29 10:32:21;;;;;;;31.65;10.55;;;;;;;3.08;90.33;101291.73;1697533;83;21177;-87
2020/12/29 10:34:50;;;;;;;31.37;10.63;;;;;;;3.07;90.90;101292.76;1697393;83;21190;-89
2020/12/29 10:37:16;;;;;;;35.00;12.13;;;;;;;3.16;90.62;101284.94;1677717;84;21133;-89
2020/12/29 10:39:42;;;;;;;33.67;12.50;;;;;;;3.14;90.27;101275.50;1697662;83;21626;-89
2020/12/29 10:42:08;;;;;;;32.00;11.83;;;;;;;3.07;90.96;101270.13;1697732;83;21927;-90
2020/12/29 10:44:34;;;;;;;36.35;11.48;;;;;;;3.11;90.35;101278.03;1697418;84;21188;-90
2020/12/29 10:47:00;;;;;;;38.83;13.58;;;;;;;3.23;90.56;101288.16;1697398;83;20975;-90
2020/12/29 10:49:26;;;;;;;29.92;10.68;;;;;;;3.16;90.62;101281.45;1697803;83;21145;-90
2020/12/29 10:51:52;;;;;;;56.65;17.45;;;;;;;3.29;90.39;101286.05;1697686;84;21017;-90
2020/12/29 10:54:18;;;;;;;40.60;13.45;;;;;;;3.15;90.58;101286.48;1697807;84;21927;-90
2020/12/29 10:59:12;;;;;;;36.25;10.80;;;;;;;3.21;90.77;101300.35;1627838;87;21708;-89
2020/12/29 11:01:38;;;;;;;35.28;11.73;;;;;;;3.29;90.53;101303.36;1617977;88;21237;-90
2020/12/29 11:04:04;;;;;;;40.20;13.05;;;;;;;3.42;90.28;101308.80;1596746;88;20999;-90
2020/12/29 11:06:30;;;;;;;45.10;13.35;;;;;;;3.28;90.81;101313.71;1616559;87;21686;-89
2020/12/29 11:08:56;;;;;;;60.03;19.20;;;;;;;3.33;90.15;101320.63;1617913;88;20993;-89
2020/12/29 11:11:22;;;;;;;43.25;14.05;;;;;;;3.50;90.71;101326.45;1616749;86;21629;-90
2020/12/29 11:13:48;;;;;;;44.63;13.13;;;;;;;3.54;90.35;101320.55;1614370;86;21048;-89
2020/12/29 11:16:16;;;;;;;41.55;13.38;;;;;;;3.43;90.05;101317.61;1642296;87;21165;-89
2020/12/29 11:18:47;;;;;;;42.13;13.70;;;;;;;3.37;89.64;101314.69;1642375;86;21237;-89
2020/12/29 11:21:20;;;;;;;39.78;12.90;;;;;;;3.33;90.60;101309.97;1642358;86;21215;-90
2020/12/29 11:23:47;;;;;;;35.68;11.90;;;;;;;3.32;89.70;101313.62;1642458;86;21178;-89
2020/12/29 11:26:18;;;;;;;60.03;16.80;;;;;;;3.41;90.67;101313.30;1642261;86;21164;-89
2020/12/29 11:28:49;;;;;;;32.98;11.57;;;;;;;3.46;90.80;101317.22;1642244;87;21121;-90
2020/12/29 11:31:18;;;;;;;34.58;11.88;;;;;;;3.50;89.88;101308.65;1642313;87;21915;-89
2020/12/29 11:33:44;;;;;;;31.50;10.82;;;;;;;3.52;89.97;101303.11;1642260;87;21205;-89
2020/12/29 11:36:16;;;;;;;33.15;11.18;;;;;;;3.58;89.49;101304.98;1642424;86;21570;-89